sensor_id;sensor_type;location;lat;lon;timestamp;temperature;humidity
29575;DHT22;16507;51.046;6.406;2023-08-20T00:00:18;18.80;99.90
29575;DHT22;16507;51.046;6.406;2023-08-20T00:02:46;18.90;99.90
29575;DHT22;16507;51.046;6.406;2023-08-20T00:05:12;18.70;99.90
29575;DHT22;16507;51.046;6.406;2023-08-20T00:07:39;18.70;99.90
29575;DHT22;16507;51.046;6.406;2023-08-20T00:10:05;18.70;99.90
29575;DHT22;16507;51.046;6.406;2023-08-20T00:12:32;18.70;99.90
29575;DHT22;16507;51.046;6.406;2023-08-20T00:15:00;18.70;99.90
29575;DHT22;16507;51.046;6.406;2023-08-20T00:17:33;18.60;99.90
29575;DHT22;16507;51.046;6.406;2023-08-20T00:19:59;18.50;99.90
29575;DHT22;16507;51.046;6.406;2023-08-20T00:22:25;18.40;99.90
29575;DHT22;16507;51.046;6.406;2023-08-20T00:24:52;18.30;99.90
29575;DHT22;16507;51.046;6.406;2023-08-20T00:27:19;18.20;99.90
29575;DHT22;16507;51.046;6.406;2023-08-20T00:29:45;18.10;99.90
29575;DHT22;16507;51.046;6.406;2023-08-20T00:32:10;18.10;99.90
29575;DHT22;16507;51.046;6.406;2023-08-20T00:34:36;18.10;99.90
29575;DHT22;16507;51.046;6.406;2023-08-20T00:37:02;18.10;99.90
29575;DHT22;16507;51.046;6.406;2023-08-20T00:39:29;18.10;99.90
29575;DHT22;16507;51.046;6.406;2023-08-20T00:41:55;18.20;99.90
29575;DHT22;16507;51.046;6.406;2023-08-20T00:44:20;18.30;99.90
29575;DHT22;16507;51.046;6.406;2023-08-20T00:46:46;18.30;99.90
29575;DHT22;16507;51.046;6.406;2023-08-20T00:49:12;18.40;99.90
29575;DHT22;16507;51.046;6.406;2023-08-20T00:51:38;18.40;99.90
29575;DHT22;16507;51.046;6.406;2023-08-20T00:54:04;18.40;99.90
29575;DHT22;16507;51.046;6.406;2023-08-20T00:56:30;18.40;99.90
29575;DHT22;16507;51.046;6.406;2023-08-20T00:58:56;18.40;99.90
29575;DHT22;16507;51.046;6.406;2023-08-20T01:01:23;18.30;99.90
29575;DHT22;16507;51.046;6.406;2023-08-20T01:03:48;18.30;99.90
29575;DHT22;16507;51.046;6.406;2023-08-20T01:06:29;18.30;99.90
29575;DHT22;16507;51.046;6.406;2023-08-20T01:09:12;18.30;99.90
29575;DHT22;16507;51.046;6.406;2023-08-20T01:11:47;18.40;99.90
29575;DHT22;16507;51.046;6.406;2023-08-20T01:14:16;18.60;99.90
29575;DHT22;16507;51.046;6.406;2023-08-20T01:16:42;18.60;99.90
29575;DHT22;16507;51.046;6.406;2023-08-20T01:19:11;18.60;99.90
29575;DHT22;16507;51.046;6.406;2023-08-20T01:27:41;18.60;99.90
29575;DHT22;16507;51.046;6.406;2023-08-20T01:30:08;18.50;99.90
29575;DHT22;16507;51.046;6.406;2023-08-20T01:32:36;18.50;99.90
29575;DHT22;16507;51.046;6.406;2023-08-20T01:35:02;18.50;99.90
29575;DHT22;16507;51.046;6.406;2023-08-20T01:37:28;18.40;99.90
29575;DHT22;16507;51.046;6.406;2023-08-20T01:39:54;18.50;99.90
29575;DHT22;16507;51.046;6.406;2023-08-20T01:42:20;18.50;99.90
29575;DHT22;16507;51.046;6.406;2023-08-20T01:44:45;18.50;99.90
29575;DHT22;16507;51.046;6.406;2023-08-20T01:47:11;18.50;99.90
29575;DHT22;16507;51.046;6.406;2023-08-20T01:49:37;18.60;99.90
29575;DHT22;16507;51.046;6.406;2023-08-20T01:52:02;18.60;99.90
29575;DHT22;16507;51.046;6.406;2023-08-20T01:54:29;18.70;99.90
29575;DHT22;16507;51.046;6.406;2023-08-20T01:56:54;18.70;99.90
29575;DHT22;16507;51.046;6.406;2023-08-20T01:59:22;18.70;99.90
29575;DHT22;16507;51.046;6.406;2023-08-20T02:01:48;18.70;99.90
29575;DHT22;16507;51.046;6.406;2023-08-20T02:04:14;18.70;99.90
29575;DHT22;16507;51.046;6.406;2023-08-20T02:06:39;18.70;99.90
29575;DHT22;16507;51.046;6.406;2023-08-20T02:09:05;18.70;99.90
29575;DHT22;16507;51.046;6.406;2023-08-20T02:11:31;18.60;99.90
29575;DHT22;16507;51.046;6.406;2023-08-20T02:14:01;18.70;99.90
29575;DHT22;16507;51.046;6.406;2023-08-20T02:16:26;18.80;99.90
29575;DHT22;16507;51.046;6.406;2023-08-20T02:18:52;18.80;99.90
29575;DHT22;16507;51.046;6.406;2023-08-20T02:21:17;18.90;99.90
29575;DHT22;16507;51.046;6.406;2023-08-20T02:23:43;18.90;99.90
29575;DHT22;16507;51.046;6.406;2023-08-20T02:26:10;18.90;99.90
29575;DHT22;16507;51.046;6.406;2023-08-20T02:28:35;18.90;99.90
29575;DHT22;16507;51.046;6.406;2023-08-20T02:31:04;18.90;99.90
29575;DHT22;16507;51.046;6.406;2023-08-20T02:33:30;18.90;99.90
29575;DHT22;16507;51.046;6.406;2023-08-20T02:36:03;18.90;99.90
29575;DHT22;16507;51.046;6.406;2023-08-20T02:38:29;18.90;99.90
29575;DHT22;16507;51.046;6.406;2023-08-20T02:40:55;18.90;99.90
29575;DHT22;16507;51.046;6.406;2023-08-20T02:43:21;18.90;99.90
29575;DHT22;16507;51.046;6.406;2023-08-20T02:45:47;18.80;99.90
29575;DHT22;16507;51.046;6.406;2023-08-20T02:48:14;18.80;99.90
29575;DHT22;16507;51.046;6.406;2023-08-20T02:50:40;18.80;99.90
29575;DHT22;16507;51.046;6.406;2023-08-20T02:53:06;18.70;99.90
29575;DHT22;16507;51.046;6.406;2023-08-20T02:55:33;18.70;99.90
29575;DHT22;16507;51.046;6.406;2023-08-20T02:57:59;18.60;99.90
29575;DHT22;16507;51.046;6.406;2023-08-20T03:00:25;18.70;99.90
29575;DHT22;16507;51.046;6.406;2023-08-20T03:02:50;18.70;99.90
29575;DHT22;16507;51.046;6.406;2023-08-20T03:05:16;18.60;99.90
29575;DHT22;16507;51.046;6.406;2023-08-20T03:07:42;18.60;99.90
29575;DHT22;16507;51.046;6.406;2023-08-20T03:10:07;18.70;99.90
29575;DHT22;16507;51.046;6.406;2023-08-20T03:12:33;18.60;99.90
29575;DHT22;16507;51.046;6.406;2023-08-20T03:15:02;18.60;99.90
29575;DHT22;16507;51.046;6.406;2023-08-20T03:17:28;18.60;99.90
29575;DHT22;16507;51.046;6.406;2023-08-20T03:19:58;18.60;99.90
29575;DHT22;16507;51.046;6.406;2023-08-20T03:22:26;18.60;99.90
29575;DHT22;16507;51.046;6.406;2023-08-20T03:24:52;18.60;99.90
29575;DHT22;16507;51.046;6.406;2023-08-20T03:27:19;18.50;99.90
29575;DHT22;16507;51.046;6.406;2023-08-20T03:29:45;18.50;99.90
29575;DHT22;16507;51.046;6.406;2023-08-20T03:32:11;18.50;99.90
29575;DHT22;16507;51.046;6.406;2023-08-20T03:34:37;18.50;99.90
29575;DHT22;16507;51.046;6.406;2023-08-20T03:37:04;18.50;99.90
29575;DHT22;16507;51.046;6.406;2023-08-20T03:39:30;18.50;99.90
29575;DHT22;16507;51.046;6.406;2023-08-20T03:41:57;18.50;99.90
29575;DHT22;16507;51.046;6.406;2023-08-20T03:44:23;18.40;99.90
29575;DHT22;16507;51.046;6.406;2023-08-20T03:46:48;18.40;99.90
29575;DHT22;16507;51.046;6.406;2023-08-20T03:49:14;18.40;99.90
29575;DHT22;16507;51.046;6.406;2023-08-20T03:51:39;18.40;99.90
29575;DHT22;16507;51.046;6.406;2023-08-20T03:54:06;18.30;99.90
29575;DHT22;16507;51.046;6.406;2023-08-20T03:56:32;18.30;99.90
29575;DHT22;16507;51.046;6.406;2023-08-20T03:58:57;18.20;99.90
29575;DHT22;16507;51.046;6.406;2023-08-20T04:01:23;18.20;99.90
29575;DHT22;16507;51.046;6.406;2023-08-20T04:03:48;18.20;99.90
29575;DHT22;16507;51.046;6.406;2023-08-20T04:06:14;18.20;99.90
29575;DHT22;16507;51.046;6.406;2023-08-20T04:08:40;18.10;99.90
29575;DHT22;16507;51.046;6.406;2023-08-20T04:11:06;18.10;99.90
29575;DHT22;16507;51.046;6.406;2023-08-20T04:13:32;18.10;99.90
29575;DHT22;16507;51.046;6.406;2023-08-20T04:15:57;18.00;99.90
29575;DHT22;16507;51.046;6.406;2023-08-20T04:18:23;18.10;99.90
29575;DHT22;16507;51.046;6.406;2023-08-20T04:20:53;17.90;99.90
29575;DHT22;16507;51.046;6.406;2023-08-20T04:23:21;17.90;99.90
29575;DHT22;16507;51.046;6.406;2023-08-20T04:25:47;17.90;99.90
29575;DHT22;16507;51.046;6.406;2023-08-20T04:28:13;17.80;99.90
29575;DHT22;16507;51.046;6.406;2023-08-20T04:30:38;17.80;99.90
29575;DHT22;16507;51.046;6.406;2023-08-20T04:33:05;17.80;99.90
29575;DHT22;16507;51.046;6.406;2023-08-20T04:35:30;17.80;99.90
29575;DHT22;16507;51.046;6.406;2023-08-20T04:37:56;17.80;99.90
29575;DHT22;16507;51.046;6.406;2023-08-20T04:40:22;17.90;99.90
29575;DHT22;16507;51.046;6.406;2023-08-20T04:42:48;17.80;99.90
29575;DHT22;16507;51.046;6.406;2023-08-20T04:45:13;17.90;99.90
29575;DHT22;16507;51.046;6.406;2023-08-20T04:47:39;17.90;99.90
29575;DHT22;16507;51.046;6.406;2023-08-20T04:50:05;17.90;99.90
29575;DHT22;16507;51.046;6.406;2023-08-20T04:52:34;17.90;99.90
29575;DHT22;16507;51.046;6.406;2023-08-20T04:55:00;17.90;99.90
29575;DHT22;16507;51.046;6.406;2023-08-20T04:57:26;17.80;99.90
29575;DHT22;16507;51.046;6.406;2023-08-20T04:59:52;17.80;99.90
29575;DHT22;16507;51.046;6.406;2023-08-20T05:02:17;17.80;99.90
29575;DHT22;16507;51.046;6.406;2023-08-20T05:04:43;17.90;99.90
29575;DHT22;16507;51.046;6.406;2023-08-20T05:07:09;17.80;99.90
29575;DHT22;16507;51.046;6.406;2023-08-20T05:09:34;17.80;99.90
29575;DHT22;16507;51.046;6.406;2023-08-20T05:12:00;17.80;99.90
29575;DHT22;16507;51.046;6.406;2023-08-20T05:14:26;17.80;99.90
29575;DHT22;16507;51.046;6.406;2023-08-20T05:16:51;17.80;99.90
29575;DHT22;16507;51.046;6.406;2023-08-20T05:19:17;17.90;99.90
29575;DHT22;16507;51.046;6.406;2023-08-20T05:21:42;18.00;99.90
29575;DHT22;16507;51.046;6.406;2023-08-20T05:24:08;18.20;99.90
29575;DHT22;16507;51.046;6.406;2023-08-20T05:26:35;18.40;99.90
29575;DHT22;16507;51.046;6.406;2023-08-20T05:29:00;18.80;99.90
29575;DHT22;16507;51.046;6.406;2023-08-20T05:31:26;19.50;99.90
29575;DHT22;16507;51.046;6.406;2023-08-20T05:33:52;20.20;99.90
29575;DHT22;16507;51.046;6.406;2023-08-20T05:36:17;20.60;99.90
29575;DHT22;16507;51.046;6.406;2023-08-20T05:38:43;21.10;99.90
29575;DHT22;16507;51.046;6.406;2023-08-20T05:41:09;21.50;99.90
29575;DHT22;16507;51.046;6.406;2023-08-20T05:43:34;21.70;99.90
29575;DHT22;16507;51.046;6.406;2023-08-20T05:46:02;22.10;99.90
29575;DHT22;16507;51.046;6.406;2023-08-20T05:48:28;21.80;99.90
29575;DHT22;16507;51.046;6.406;2023-08-20T05:50:54;21.00;99.90
29575;DHT22;16507;51.046;6.406;2023-08-20T05:53:21;20.60;99.90
29575;DHT22;16507;51.046;6.406;2023-08-20T05:55:47;20.70;99.90
29575;DHT22;16507;51.046;6.406;2023-08-20T05:58:12;21.40;99.90
29575;DHT22;16507;51.046;6.406;2023-08-20T06:00:38;21.10;99.90
29575;DHT22;16507;51.046;6.406;2023-08-20T06:03:04;20.70;99.90
29575;DHT22;16507;51.046;6.406;2023-08-20T06:05:30;20.40;99.90
29575;DHT22;16507;51.046;6.406;2023-08-20T06:07:55;20.30;99.90
29575;DHT22;16507;51.046;6.406;2023-08-20T06:10:21;20.30;99.90
29575;DHT22;16507;51.046;6.406;2023-08-20T06:12:46;20.30;99.90
29575;DHT22;16507;51.046;6.406;2023-08-20T06:15:12;20.30;99.90
29575;DHT22;16507;51.046;6.406;2023-08-20T06:17:37;20.20;99.90
29575;DHT22;16507;51.046;6.406;2023-08-20T06:20:04;20.40;99.90
29575;DHT22;16507;51.046;6.406;2023-08-20T06:22:32;20.50;99.90
29575;DHT22;16507;51.046;6.406;2023-08-20T06:24:58;20.70;99.90
29575;DHT22;16507;51.046;6.406;2023-08-20T06:27:23;20.80;99.90
29575;DHT22;16507;51.046;6.406;2023-08-20T06:29:49;20.80;99.90
29575;DHT22;16507;51.046;6.406;2023-08-20T06:32:15;20.80;99.90
29575;DHT22;16507;51.046;6.406;2023-08-20T06:34:40;20.90;99.90
29575;DHT22;16507;51.046;6.406;2023-08-20T06:37:06;20.90;99.90
29575;DHT22;16507;51.046;6.406;2023-08-20T06:39:32;21.10;99.90
29575;DHT22;16507;51.046;6.406;2023-08-20T06:41:57;21.40;99.90
29575;DHT22;16507;51.046;6.406;2023-08-20T06:44:23;21.50;99.90
29575;DHT22;16507;51.046;6.406;2023-08-20T06:46:48;21.50;99.90
29575;DHT22;16507;51.046;6.406;2023-08-20T06:49:14;21.50;99.90
29575;DHT22;16507;51.046;6.406;2023-08-20T06:51:40;21.50;99.90
29575;DHT22;16507;51.046;6.406;2023-08-20T06:54:05;21.50;99.90
29575;DHT22;16507;51.046;6.406;2023-08-20T06:56:34;21.60;99.90
29575;DHT22;16507;51.046;6.406;2023-08-20T06:59:00;21.70;99.90
29575;DHT22;16507;51.046;6.406;2023-08-20T07:01:28;21.70;99.90
29575;DHT22;16507;51.046;6.406;2023-08-20T07:03:53;21.80;99.90
29575;DHT22;16507;51.046;6.406;2023-08-20T07:06:19;21.90;99.90
29575;DHT22;16507;51.046;6.406;2023-08-20T07:08:44;22.10;99.90
29575;DHT22;16507;51.046;6.406;2023-08-20T07:11:10;22.20;99.90
29575;DHT22;16507;51.046;6.406;2023-08-20T07:13:36;22.20;99.90
29575;DHT22;16507;51.046;6.406;2023-08-20T07:16:02;22.50;99.90
29575;DHT22;16507;51.046;6.406;2023-08-20T07:18:28;22.50;99.90
29575;DHT22;16507;51.046;6.406;2023-08-20T07:20:55;22.60;99.90
29575;DHT22;16507;51.046;6.406;2023-08-20T07:23:21;22.60;99.90
29575;DHT22;16507;51.046;6.406;2023-08-20T07:25:46;22.80;99.90
29575;DHT22;16507;51.046;6.406;2023-08-20T07:28:12;23.20;99.90
29575;DHT22;16507;51.046;6.406;2023-08-20T07:30:38;23.30;99.90
29575;DHT22;16507;51.046;6.406;2023-08-20T07:33:05;23.30;99.90
29575;DHT22;16507;51.046;6.406;2023-08-20T07:35:31;23.20;99.90
29575;DHT22;16507;51.046;6.406;2023-08-20T07:37:56;23.20;99.90
29575;DHT22;16507;51.046;6.406;2023-08-20T07:40:22;23.10;99.90
29575;DHT22;16507;51.046;6.406;2023-08-20T07:42:47;23.10;99.90
29575;DHT22;16507;51.046;6.406;2023-08-20T07:45:13;23.10;99.90
29575;DHT22;16507;51.046;6.406;2023-08-20T07:47:38;23.10;99.90
29575;DHT22;16507;51.046;6.406;2023-08-20T07:50:05;23.00;99.90
29575;DHT22;16507;51.046;6.406;2023-08-20T07:52:31;23.00;99.90
29575;DHT22;16507;51.046;6.406;2023-08-20T07:54:57;23.00;99.90
29575;DHT22;16507;51.046;6.406;2023-08-20T07:57:23;23.10;99.90
29575;DHT22;16507;51.046;6.406;2023-08-20T07:59:51;23.20;99.90
29575;DHT22;16507;51.046;6.406;2023-08-20T08:02:18;23.30;99.90
29575;DHT22;16507;51.046;6.406;2023-08-20T08:04:43;23.40;99.90
29575;DHT22;16507;51.046;6.406;2023-08-20T08:07:10;23.70;99.90
29575;DHT22;16507;51.046;6.406;2023-08-20T08:09:36;23.70;99.90
29575;DHT22;16507;51.046;6.406;2023-08-20T08:12:02;23.80;99.90
29575;DHT22;16507;51.046;6.406;2023-08-20T08:14:28;24.00;99.90
29575;DHT22;16507;51.046;6.406;2023-08-20T08:16:54;24.10;99.90
29575;DHT22;16507;51.046;6.406;2023-08-20T08:19:20;24.20;99.90
29575;DHT22;16507;51.046;6.406;2023-08-20T08:21:46;24.00;99.90
29575;DHT22;16507;51.046;6.406;2023-08-20T08:24:12;24.10;99.90
29575;DHT22;16507;51.046;6.406;2023-08-20T08:26:39;24.10;99.90
29575;DHT22;16507;51.046;6.406;2023-08-20T08:29:06;24.20;99.90
29575;DHT22;16507;51.046;6.406;2023-08-20T08:31:32;24.30;99.90
29575;DHT22;16507;51.046;6.406;2023-08-20T08:33:58;24.20;99.90
29575;DHT22;16507;51.046;6.406;2023-08-20T08:36:23;24.40;99.90
29575;DHT22;16507;51.046;6.406;2023-08-20T08:38:52;24.60;99.90
29575;DHT22;16507;51.046;6.406;2023-08-20T08:41:21;24.60;99.90
29575;DHT22;16507;51.046;6.406;2023-08-20T08:43:49;25.00;99.90
29575;DHT22;16507;51.046;6.406;2023-08-20T08:46:15;25.00;99.90
29575;DHT22;16507;51.046;6.406;2023-08-20T08:48:45;25.20;99.90
29575;DHT22;16507;51.046;6.406;2023-08-20T08:51:12;25.30;99.90
29575;DHT22;16507;51.046;6.406;2023-08-20T08:53:38;25.30;99.90
29575;DHT22;16507;51.046;6.406;2023-08-20T08:56:04;25.30;99.90
29575;DHT22;16507;51.046;6.406;2023-08-20T08:58:32;25.40;99.90
29575;DHT22;16507;51.046;6.406;2023-08-20T09:00:58;25.50;99.90
29575;DHT22;16507;51.046;6.406;2023-08-20T09:03:23;25.40;99.90
29575;DHT22;16507;51.046;6.406;2023-08-20T09:05:54;25.60;99.90
29575;DHT22;16507;51.046;6.406;2023-08-20T09:08:21;25.80;99.90
29575;DHT22;16507;51.046;6.406;2023-08-20T09:10:50;26.00;99.90
29575;DHT22;16507;51.046;6.406;2023-08-20T09:13:16;26.00;99.90
29575;DHT22;16507;51.046;6.406;2023-08-20T09:15:42;26.20;99.90
29575;DHT22;16507;51.046;6.406;2023-08-20T09:18:11;26.00;99.90
29575;DHT22;16507;51.046;6.406;2023-08-20T09:20:37;26.00;99.90
29575;DHT22;16507;51.046;6.406;2023-08-20T09:23:04;25.60;99.90
29575;DHT22;16507;51.046;6.406;2023-08-20T09:25:29;25.40;99.90
29575;DHT22;16507;51.046;6.406;2023-08-20T09:27:55;25.50;99.90
29575;DHT22;16507;51.046;6.406;2023-08-20T09:30:21;25.70;99.90
29575;DHT22;16507;51.046;6.406;2023-08-20T09:33:11;25.70;99.90
29575;DHT22;16507;51.046;6.406;2023-08-20T09:35:39;26.30;99.90
29575;DHT22;16507;51.046;6.406;2023-08-20T09:38:13;26.60;99.90
29575;DHT22;16507;51.046;6.406;2023-08-20T09:40:39;27.20;99.90
29575;DHT22;16507;51.046;6.406;2023-08-20T09:43:07;27.20;99.90
29575;DHT22;16507;51.046;6.406;2023-08-20T09:45:34;27.30;99.90
29575;DHT22;16507;51.046;6.406;2023-08-20T09:48:05;27.10;99.90
29575;DHT22;16507;51.046;6.406;2023-08-20T09:50:32;26.50;99.90
29575;DHT22;16507;51.046;6.406;2023-08-20T09:53:34;26.30;99.90
29575;DHT22;16507;51.046;6.406;2023-08-20T09:56:09;25.90;99.90
29575;DHT22;16507;51.046;6.406;2023-08-20T09:58:40;25.60;99.90
29575;DHT22;16507;51.046;6.406;2023-08-20T10:01:07;25.40;99.90
29575;DHT22;16507;51.046;6.406;2023-08-20T10:03:32;25.80;99.90
29575;DHT22;16507;51.046;6.406;2023-08-20T10:05:59;26.10;99.90
29575;DHT22;16507;51.046;6.406;2023-08-20T10:08:26;26.20;99.90
29575;DHT22;16507;51.046;6.406;2023-08-20T10:10:52;26.40;99.90
29575;DHT22;16507;51.046;6.406;2023-08-20T10:13:18;26.40;99.90
29575;DHT22;16507;51.046;6.406;2023-08-20T10:15:44;26.30;99.90
29575;DHT22;16507;51.046;6.406;2023-08-20T10:18:11;26.10;99.90
29575;DHT22;16507;51.046;6.406;2023-08-20T10:20:38;26.10;99.90
29575;DHT22;16507;51.046;6.406;2023-08-20T10:23:05;25.90;99.90
29575;DHT22;16507;51.046;6.406;2023-08-20T10:25:31;25.70;99.90
29575;DHT22;16507;51.046;6.406;2023-08-20T10:28:14;25.50;99.90
29575;DHT22;16507;51.046;6.406;2023-08-20T10:31:10;25.50;99.90
29575;DHT22;16507;51.046;6.406;2023-08-20T10:33:57;26.00;99.90
29575;DHT22;16507;51.046;6.406;2023-08-20T10:36:24;26.50;99.90
29575;DHT22;16507;51.046;6.406;2023-08-20T10:38:54;26.90;99.90
29575;DHT22;16507;51.046;6.406;2023-08-20T10:41:28;27.10;99.90
29575;DHT22;16507;51.046;6.406;2023-08-20T10:43:58;27.40;99.90
29575;DHT22;16507;51.046;6.406;2023-08-20T10:46:25;27.40;99.90
29575;DHT22;16507;51.046;6.406;2023-08-20T10:48:58;27.50;99.90
29575;DHT22;16507;51.046;6.406;2023-08-20T10:51:36;27.50;99.90
29575;DHT22;16507;51.046;6.406;2023-08-20T10:56:40;27.50;99.90
29575;DHT22;16507;51.046;6.406;2023-08-20T10:59:09;27.60;99.90
29575;DHT22;16507;51.046;6.406;2023-08-20T11:01:34;27.40;99.90
29575;DHT22;16507;51.046;6.406;2023-08-20T11:04:01;27.10;99.90
29575;DHT22;16507;51.046;6.406;2023-08-20T11:06:31;26.50;99.90
29575;DHT22;16507;51.046;6.406;2023-08-20T11:08:58;26.30;99.90
29575;DHT22;16507;51.046;6.406;2023-08-20T11:11:24;26.20;99.90
29575;DHT22;16507;51.046;6.406;2023-08-20T11:13:49;26.00;99.90
29575;DHT22;16507;51.046;6.406;2023-08-20T11:16:15;26.00;99.90
29575;DHT22;16507;51.046;6.406;2023-08-20T11:18:41;26.20;99.90
29575;DHT22;16507;51.046;6.406;2023-08-20T11:21:07;26.40;99.90
29575;DHT22;16507;51.046;6.406;2023-08-20T11:23:33;26.50;99.90
29575;DHT22;16507;51.046;6.406;2023-08-20T11:25:59;26.60;99.90
29575;DHT22;16507;51.046;6.406;2023-08-20T11:28:26;26.30;99.90
29575;DHT22;16507;51.046;6.406;2023-08-20T11:30:53;26.00;99.90
29575;DHT22;16507;51.046;6.406;2023-08-20T11:33:19;26.00;99.90
29575;DHT22;16507;51.046;6.406;2023-08-20T11:35:45;26.30;99.90
29575;DHT22;16507;51.046;6.406;2023-08-20T11:38:11;26.10;99.90
29575;DHT22;16507;51.046;6.406;2023-08-20T11:40:37;25.90;99.90
29575;DHT22;16507;51.046;6.406;2023-08-20T11:43:03;26.90;99.90
29575;DHT22;16507;51.046;6.406;2023-08-20T11:45:29;27.90;99.90
29575;DHT22;16507;51.046;6.406;2023-08-20T11:47:58;27.60;96.40
29575;DHT22;16507;51.046;6.406;2023-08-20T11:50:24;27.20;99.90
29575;DHT22;16507;51.046;6.406;2023-08-20T11:52:52;26.90;99.90
29575;DHT22;16507;51.046;6.406;2023-08-20T11:55:23;27.60;98.10
29575;DHT22;16507;51.046;6.406;2023-08-20T11:57:51;27.50;99.90
29575;DHT22;16507;51.046;6.406;2023-08-20T12:00:27;27.60;99.90
29575;DHT22;16507;51.046;6.406;2023-08-20T12:02:54;27.10;99.90
29575;DHT22;16507;51.046;6.406;2023-08-20T12:05:27;26.80;99.90
29575;DHT22;16507;51.046;6.406;2023-08-20T12:08:00;26.70;99.90
29575;DHT22;16507;51.046;6.406;2023-08-20T12:10:27;27.30;99.90
29575;DHT22;16507;51.046;6.406;2023-08-20T12:12:55;27.70;99.90
29575;DHT22;16507;51.046;6.406;2023-08-20T12:15:21;28.00;99.90
29575;DHT22;16507;51.046;6.406;2023-08-20T12:18:04;28.00;96.90
29575;DHT22;16507;51.046;6.406;2023-08-20T12:20:31;27.80;98.00
29575;DHT22;16507;51.046;6.406;2023-08-20T12:23:02;28.00;94.20
29575;DHT22;16507;51.046;6.406;2023-08-20T12:25:32;28.40;89.10
29575;DHT22;16507;51.046;6.406;2023-08-20T12:27:59;28.70;79.20
29575;DHT22;16507;51.046;6.406;2023-08-20T12:30:25;29.00;79.30
29575;DHT22;16507;51.046;6.406;2023-08-20T12:32:50;29.60;74.70
29575;DHT22;16507;51.046;6.406;2023-08-20T12:35:16;29.50;73.00
29575;DHT22;16507;51.046;6.406;2023-08-20T12:37:41;29.20;81.00
29575;DHT22;16507;51.046;6.406;2023-08-20T12:40:07;28.90;75.60
29575;DHT22;16507;51.046;6.406;2023-08-20T12:42:37;28.80;78.20
29575;DHT22;16507;51.046;6.406;2023-08-20T12:45:06;28.70;75.90
29575;DHT22;16507;51.046;6.406;2023-08-20T12:47:34;27.50;80.70
29575;DHT22;16507;51.046;6.406;2023-08-20T12:50:00;27.30;86.40
29575;DHT22;16507;51.046;6.406;2023-08-20T12:52:25;28.50;89.30
29575;DHT22;16507;51.046;6.406;2023-08-20T12:54:51;29.60;73.70
29575;DHT22;16507;51.046;6.406;2023-08-20T12:57:17;29.90;76.50
29575;DHT22;16507;51.046;6.406;2023-08-20T12:59:42;29.50;73.40
29575;DHT22;16507;51.046;6.406;2023-08-20T13:02:08;28.60;79.10
29575;DHT22;16507;51.046;6.406;2023-08-20T13:04:34;28.80;87.70
29575;DHT22;16507;51.046;6.406;2023-08-20T13:07:00;29.10;73.80
29575;DHT22;16507;51.046;6.406;2023-08-20T13:09:27;29.40;73.20
29575;DHT22;16507;51.046;6.406;2023-08-20T13:11:53;29.10;74.20
29575;DHT22;16507;51.046;6.406;2023-08-20T13:14:21;28.80;76.00
29575;DHT22;16507;51.046;6.406;2023-08-20T13:16:47;28.80;74.90
29575;DHT22;16507;51.046;6.406;2023-08-20T13:19:13;29.30;66.90
29575;DHT22;16507;51.046;6.406;2023-08-20T13:21:38;28.60;74.00
29575;DHT22;16507;51.046;6.406;2023-08-20T13:24:04;28.00;74.50
29575;DHT22;16507;51.046;6.406;2023-08-20T13:26:30;27.50;78.10
29575;DHT22;16507;51.046;6.406;2023-08-20T13:28:56;27.40;85.30
29575;DHT22;16507;51.046;6.406;2023-08-20T13:31:22;27.20;89.00
29575;DHT22;16507;51.046;6.406;2023-08-20T13:33:47;26.80;83.40
29575;DHT22;16507;51.046;6.406;2023-08-20T13:36:15;26.90;84.50
29575;DHT22;16507;51.046;6.406;2023-08-20T13:38:41;27.60;88.00
29575;DHT22;16507;51.046;6.406;2023-08-20T13:41:07;28.40;85.20
29575;DHT22;16507;51.046;6.406;2023-08-20T13:43:32;28.70;80.00
29575;DHT22;16507;51.046;6.406;2023-08-20T13:45:58;28.10;79.10
29575;DHT22;16507;51.046;6.406;2023-08-20T13:48:24;27.40;73.00
29575;DHT22;16507;51.046;6.406;2023-08-20T13:50:49;27.30;85.50
29575;DHT22;16507;51.046;6.406;2023-08-20T13:53:15;27.20;88.10
29575;DHT22;16507;51.046;6.406;2023-08-20T13:55:40;27.20;79.40
29575;DHT22;16507;51.046;6.406;2023-08-20T13:58:06;27.30;81.90
29575;DHT22;16507;51.046;6.406;2023-08-20T14:00:32;27.40;73.30
29575;DHT22;16507;51.046;6.406;2023-08-20T14:02:58;27.50;77.10
29575;DHT22;16507;51.046;6.406;2023-08-20T14:05:24;27.40;72.10
29575;DHT22;16507;51.046;6.406;2023-08-20T14:07:49;27.60;75.50
29575;DHT22;16507;51.046;6.406;2023-08-20T14:10:15;28.10;75.40
29575;DHT22;16507;51.046;6.406;2023-08-20T14:12:41;28.10;70.20
29575;DHT22;16507;51.046;6.406;2023-08-20T14:15:09;28.00;70.00
29575;DHT22;16507;51.046;6.406;2023-08-20T14:17:35;27.90;66.90
29575;DHT22;16507;51.046;6.406;2023-08-20T14:20:01;28.50;70.70
29575;DHT22;16507;51.046;6.406;2023-08-20T14:22:26;29.10;65.10
29575;DHT22;16507;51.046;6.406;2023-08-20T14:24:52;29.60;64.70
29575;DHT22;16507;51.046;6.406;2023-08-20T14:27:18;29.50;58.90
29575;DHT22;16507;51.046;6.406;2023-08-20T14:29:43;29.80;57.30
29575;DHT22;16507;51.046;6.406;2023-08-20T14:32:09;30.40;56.50
29575;DHT22;16507;51.046;6.406;2023-08-20T14:34:35;30.70;56.80
29575;DHT22;16507;51.046;6.406;2023-08-20T14:37:00;30.40;46.10
29575;DHT22;16507;51.046;6.406;2023-08-20T14:39:26;30.20;43.90
29575;DHT22;16507;51.046;6.406;2023-08-20T14:41:52;30.00;47.40
29575;DHT22;16507;51.046;6.406;2023-08-20T14:44:17;30.20;43.10
29575;DHT22;16507;51.046;6.406;2023-08-20T14:46:43;30.60;48.20
29575;DHT22;16507;51.046;6.406;2023-08-20T14:49:09;30.60;43.80
29575;DHT22;16507;51.046;6.406;2023-08-20T14:51:34;30.50;39.80
29575;DHT22;16507;51.046;6.406;2023-08-20T14:54:00;30.20;41.50
29575;DHT22;16507;51.046;6.406;2023-08-20T14:56:26;30.30;45.50
29575;DHT22;16507;51.046;6.406;2023-08-20T14:58:51;30.60;41.60
29575;DHT22;16507;51.046;6.406;2023-08-20T15:01:17;30.70;42.60
29575;DHT22;16507;51.046;6.406;2023-08-20T15:03:43;30.80;37.30
29575;DHT22;16507;51.046;6.406;2023-08-20T15:06:11;30.90;35.30
29575;DHT22;16507;51.046;6.406;2023-08-20T15:08:47;30.70;33.30
29575;DHT22;16507;51.046;6.406;2023-08-20T15:11:13;30.60;35.90
29575;DHT22;16507;51.046;6.406;2023-08-20T15:13:38;30.80;35.70
29575;DHT22;16507;51.046;6.406;2023-08-20T15:16:04;31.40;35.90
29575;DHT22;16507;51.046;6.406;2023-08-20T15:18:29;31.10;30.60
29575;DHT22;16507;51.046;6.406;2023-08-20T15:20:56;31.20;32.60
29575;DHT22;16507;51.046;6.406;2023-08-20T15:23:27;31.30;29.00
29575;DHT22;16507;51.046;6.406;2023-08-20T15:25:54;31.20;28.90
29575;DHT22;16507;51.046;6.406;2023-08-20T15:28:24;31.00;32.20
29575;DHT22;16507;51.046;6.406;2023-08-20T15:30:51;30.50;33.70
29575;DHT22;16507;51.046;6.406;2023-08-20T15:33:17;30.90;34.70
29575;DHT22;16507;51.046;6.406;2023-08-20T15:35:43;30.60;27.70